sensor_id;sensor_type;location;lat;lon;timestamp;pressure;altitude;pressure_sealevel;temperature;humidity
78773;BME280;68111;44.728;11.290;2023-07-20T00:02:23;100862.84;;;27.72;46.73
78773;BME280;68111;44.728;11.290;2023-07-20T00:04:50;100862.97;;;27.71;46.61
78773;BME280;68111;44.728;11.290;2023-07-20T00:07:17;100857.31;;;27.74;46.88
78773;BME280;68111;44.728;11.290;2023-07-20T00:09:44;100855.16;;;27.79;46.54
78773;BME280;68111;44.728;11.290;2023-07-20T00:12:10;100859.31;;;27.85;46.74
78773;BME280;68111;44.728;11.290;2023-07-20T00:14:37;100856.06;;;27.92;46.54
78773;BME280;68111;44.728;11.290;2023-07-20T00:17:04;100852.06;;;27.98;46.51
78773;BME280;68111;44.728;11.290;2023-07-20T00:19:31;100850.00;;;28.01;46.18
78773;BME280;68111;44.728;11.290;2023-07-20T00:21:58;100855.84;;;27.95;45.92
78773;BME280;68111;44.728;11.290;2023-07-20T00:24:26;100862.47;;;27.91;46.25
78773;BME280;68111;44.728;11.290;2023-07-20T00:26:52;100865.59;;;27.85;46.48
78773;BME280;68111;44.728;11.290;2023-07-20T00:29:19;100849.63;;;27.81;46.38
78773;BME280;68111;44.728;11.290;2023-07-20T00:31:46;100845.47;;;27.75;46.69
78773;BME280;68111;44.728;11.290;2023-07-20T00:34:15;100839.38;;;27.71;46.93
78773;BME280;68111;44.728;11.290;2023-07-20T00:36:42;100846.66;;;27.71;46.48
78773;BME280;68111;44.728;11.290;2023-07-20T00:39:09;100825.34;;;27.65;46.42
78773;BME280;68111;44.728;11.290;2023-07-20T00:41:36;100818.75;;;27.55;46.69
78773;BME280;68111;44.728;11.290;2023-07-20T00:44:03;100824.59;;;27.49;46.83
78773;BME280;68111;44.728;11.290;2023-07-20T00:46:29;100854.69;;;27.46;47.34
78773;BME280;68111;44.728;11.290;2023-07-20T00:49:00;100893.88;;;27.41;47.47
78773;BME280;68111;44.728;11.290;2023-07-20T00:51:27;100902.50;;;27.34;48.11
78773;BME280;68111;44.728;11.290;2023-07-20T00:53:54;100894.56;;;27.31;47.96
78773;BME280;68111;44.728;11.290;2023-07-20T00:56:21;100900.88;;;27.31;48.14
78773;BME280;68111;44.728;11.290;2023-07-20T00:58:49;100911.91;;;27.28;48.26
78773;BME280;68111;44.728;11.290;2023-07-20T01:01:16;100899.50;;;27.24;48.28
78773;BME280;68111;44.728;11.290;2023-07-20T01:03:42;100896.00;;;27.22;48.65
78773;BME280;68111;44.728;11.290;2023-07-20T01:14:21;100887.97;;;27.21;48.57
78773;BME280;68111;44.728;11.290;2023-07-20T01:16:49;100884.94;;;27.25;48.14
78773;BME280;68111;44.728;11.290;2023-07-20T01:19:18;100885.53;;;27.30;47.72
78773;BME280;68111;44.728;11.290;2023-07-20T01:21:53;100878.75;;;27.37;47.89
78773;BME280;68111;44.728;11.290;2023-07-20T01:25:24;100877.00;;;27.36;47.56
78773;BME280;68111;44.728;11.290;2023-07-20T01:27:56;100877.78;;;27.38;47.48
78773;BME280;68111;44.728;11.290;2023-07-20T01:31:31;100867.31;;;27.32;47.72
78773;BME280;68111;44.728;11.290;2023-07-20T01:33:33;100866.72;;;27.27;47.86
78773;BME280;68111;44.728;11.290;2023-07-20T01:36:01;100864.41;;;27.21;48.20
78773;BME280;68111;44.728;11.290;2023-07-20T01:38:29;100868.09;;;27.20;48.21
78773;BME280;68111;44.728;11.290;2023-07-20T01:40:57;100864.50;;;27.20;48.42
78773;BME280;68111;44.728;11.290;2023-07-20T01:43:24;100864.41;;;27.21;48.17
78773;BME280;68111;44.728;11.290;2023-07-20T01:45:51;100862.47;;;27.23;48.46
78773;BME280;68111;44.728;11.290;2023-07-20T01:48:17;100865.19;;;27.23;48.33
78773;BME280;68111;44.728;11.290;2023-07-20T01:50:44;100849.88;;;27.22;48.32
78773;BME280;68111;44.728;11.290;2023-07-20T01:53:12;100837.94;;;27.25;47.95
78773;BME280;68111;44.728;11.290;2023-07-20T01:55:38;100844.91;;;27.29;48.16
78773;BME280;68111;44.728;11.290;2023-07-20T01:58:05;100843.84;;;27.31;48.17
78773;BME280;68111;44.728;11.290;2023-07-20T02:00:33;100851.03;;;27.32;48.21
78773;BME280;68111;44.728;11.290;2023-07-20T02:02:59;100839.09;;;27.35;48.83
78773;BME280;68111;44.728;11.290;2023-07-20T02:05:26;100831.06;;;27.33;48.77
78773;BME280;68111;44.728;11.290;2023-07-20T02:08:11;100833.66;;;27.35;48.94
78773;BME280;68111;44.728;11.290;2023-07-20T02:10:38;100844.31;;;27.38;49.12
78773;BME280;68111;44.728;11.290;2023-07-20T02:13:05;100846.06;;;27.39;49.55
78773;BME280;68111;44.728;11.290;2023-07-20T02:15:31;100855.09;;;27.39;49.73
78773;BME280;68111;44.728;11.290;2023-07-20T02:17:58;100846.06;;;27.39;49.80
78773;BME280;68111;44.728;11.290;2023-07-20T02:20:25;100843.56;;;27.36;50.35
78773;BME280;68111;44.728;11.290;2023-07-20T02:22:52;100839.09;;;27.35;50.45
78773;BME280;68111;44.728;11.290;2023-07-20T02:25:18;100850.06;;;27.33;50.54
78773;BME280;68111;44.728;11.290;2023-07-20T02:27:45;100856.25;;;27.35;50.91
78773;BME280;68111;44.728;11.290;2023-07-20T02:30:12;100858.00;;;27.36;51.30
78773;BME280;68111;44.728;11.290;2023-07-20T02:32:40;100850.84;;;27.35;51.25
78773;BME280;68111;44.728;11.290;2023-07-20T02:35:07;100843.84;;;27.31;51.54
78773;BME280;68111;44.728;11.290;2023-07-20T02:37:33;100852.94;;;27.30;51.63
78773;BME280;68111;44.728;11.290;2023-07-20T02:40:00;100842.09;;;27.30;52.05
78773;BME280;68111;44.728;11.290;2023-07-20T02:42:27;100847.50;;;27.30;51.91
78773;BME280;68111;44.728;11.290;2023-07-20T02:44:54;100850.22;;;27.30;51.88
78773;BME280;68111;44.728;11.290;2023-07-20T02:47:21;100846.47;;;27.33;52.17
78773;BME280;68111;44.728;11.290;2023-07-20T02:49:48;100850.16;;;27.32;52.22
78773;BME280;68111;44.728;11.290;2023-07-20T02:52:14;100857.22;;;27.34;52.39
78773;BME280;68111;44.728;11.290;2023-07-20T02:54:41;100855.38;;;27.35;52.45
78773;BME280;68111;44.728;11.290;2023-07-20T02:57:08;100850.94;;;27.34;52.13
78773;BME280;68111;44.728;11.290;2023-07-20T02:59:35;100851.03;;;27.32;52.29
78773;BME280;68111;44.728;11.290;2023-07-20T03:02:01;100840.94;;;27.34;52.55
78773;BME280;68111;44.728;11.290;2023-07-20T03:04:28;100843.66;;;27.34;52.41
78773;BME280;68111;44.728;11.290;2023-07-20T03:06:55;100850.06;;;27.33;52.96
78773;BME280;68111;44.728;11.290;2023-07-20T03:09:21;100849.28;;;27.31;52.90
78773;BME280;68111;44.728;11.290;2023-07-20T03:11:49;100831.31;;;27.29;52.88
78773;BME280;68111;44.728;11.290;2023-07-20T03:14:16;100840.53;;;27.26;53.11
78773;BME280;68111;44.728;11.290;2023-07-20T03:16:43;100840.53;;;27.26;53.23
78773;BME280;68111;44.728;11.290;2023-07-20T03:19:12;100850.16;;;27.32;52.98
78773;BME280;68111;44.728;11.290;2023-07-20T03:21:40;100848.69;;;27.40;52.85
78773;BME280;68111;44.728;11.290;2023-07-20T03:24:08;100850.78;;;27.50;52.42
78773;BME280;68111;44.728;11.290;2023-07-20T03:26:36;100841.47;;;27.54;52.28
78773;BME280;68111;44.728;11.290;2023-07-20T03:29:04;100841.25;;;27.57;52.27
78773;BME280;68111;44.728;11.290;2023-07-20T03:31:32;100850.97;;;27.61;52.41
78773;BME280;68111;44.728;11.290;2023-07-20T03:33:59;100847.94;;;27.65;51.81
78773;BME280;68111;44.728;11.290;2023-07-20T03:36:26;100849.59;;;27.68;51.81
78773;BME280;68111;44.728;11.290;2023-07-20T03:38:52;100848.59;;;27.69;52.11
78773;BME280;68111;44.728;11.290;2023-07-20T03:41:19;100845.03;;;27.68;52.14
78773;BME280;68111;44.728;11.290;2023-07-20T03:43:48;100855.88;;;27.68;51.52
78773;BME280;68111;44.728;11.290;2023-07-20T03:46:15;100851.53;;;27.66;51.83
78773;BME280;68111;44.728;11.290;2023-07-20T03:48:42;100856.97;;;27.66;51.58
78773;BME280;68111;44.728;11.290;2023-07-20T03:51:09;100856.19;;;27.64;51.45
78773;BME280;68111;44.728;11.290;2023-07-20T03:53:36;100858.81;;;27.65;51.41
78773;BME280;68111;44.728;11.290;2023-07-20T03:56:02;100854.34;;;27.64;51.44
78773;BME280;68111;44.728;11.290;2023-07-20T03:58:29;100858.16;;;27.62;51.08
78773;BME280;68111;44.728;11.290;2023-07-20T04:00:57;100859.41;;;27.56;50.96
78773;BME280;68111;44.728;11.290;2023-07-20T04:03:25;100862.41;;;27.52;50.94
78773;BME280;68111;44.728;11.290;2023-07-20T04:05:54;100855.34;;;27.49;50.99
78773;BME280;68111;44.728;11.290;2023-07-20T04:08:25;100845.66;;;27.45;50.85
78773;BME280;68111;44.728;11.290;2023-07-20T04:10:52;100846.72;;;27.42;50.78
78773;BME280;68111;44.728;11.290;2023-07-20T04:13:18;100857.81;;;27.39;50.84
78773;BME280;68111;44.728;11.290;2023-07-20T04:15:45;100865.19;;;27.37;50.53
78773;BME280;68111;44.728;11.290;2023-07-20T04:18:12;100868.66;;;27.39;50.42
78773;BME280;68111;44.728;11.290;2023-07-20T04:20:39;100855.75;;;27.43;50.59
78773;BME280;68111;44.728;11.290;2023-07-20T04:23:06;100839.34;;;27.45;49.99
78773;BME280;68111;44.728;11.290;2023-07-20T04:25:32;100844.03;;;27.42;49.84
78773;BME280;68111;44.728;11.290;2023-07-20T04:28:08;100848.69;;;27.40;49.76
78773;BME280;68111;44.728;11.290;2023-07-20T04:30:40;100858.66;;;27.40;49.72
78773;BME280;68111;44.728;11.290;2023-07-20T04:33:07;100879.31;;;27.42;49.40
78773;BME280;68111;44.728;11.290;2023-07-20T04:38:18;100891.22;;;27.54;49.52
78773;BME280;68111;44.728;11.290;2023-07-20T04:40:49;100898.09;;;27.60;48.99
78773;BME280;68111;44.728;11.290;2023-07-20T04:43:17;100897.50;;;27.69;48.88
78773;BME280;68111;44.728;11.290;2023-07-20T04:45:45;100894.06;;;27.80;48.50
78773;BME280;68111;44.728;11.290;2023-07-20T04:48:14;100888.88;;;27.89;48.06
78773;BME280;68111;44.728;11.290;2023-07-20T04:51:00;100892.50;;;28.02;47.85
78773;BME280;68111;44.728;11.290;2023-07-20T04:53:27;100890.13;;;28.11;47.59
78773;BME280;68111;44.728;11.290;2023-07-20T04:55:54;100898.84;;;28.16;47.43
78773;BME280;68111;44.728;11.290;2023-07-20T04:58:23;100903.09;;;28.20;47.43
78773;BME280;68111;44.728;11.290;2023-07-20T05:00:52;100900.19;;;28.23;47.36
78773;BME280;68111;44.728;11.290;2023-07-20T05:03:20;100904.44;;;28.27;47.01
78773;BME280;68111;44.728;11.290;2023-07-20T05:05:48;100896.84;;;28.32;46.86
78773;BME280;68111;44.728;11.290;2023-07-20T05:08:16;100900.09;;;28.37;46.87
78773;BME280;68111;44.728;11.290;2023-07-20T05:10:43;100904.13;;;28.44;47.25
78773;BME280;68111;44.728;11.290;2023-07-20T05:13:10;100910.00;;;28.51;47.02
78773;BME280;68111;44.728;11.290;2023-07-20T05:15:36;100909.69;;;28.55;46.82
78773;BME280;68111;44.728;11.290;2023-07-20T05:18:04;100913.19;;;28.57;47.03
78773;BME280;68111;44.728;11.290;2023-07-20T05:20:31;100901.91;;;28.63;46.93
78773;BME280;68111;44.728;11.290;2023-07-20T05:23:00;100904.94;;;28.72;47.21
78773;BME280;68111;44.728;11.290;2023-07-20T05:25:28;100903.53;;;28.79;47.03
78773;BME280;68111;44.728;11.290;2023-07-20T05:27:57;100905.84;;;28.85;46.61
78773;BME280;68111;44.728;11.290;2023-07-20T05:30:24;100900.94;;;28.90;46.52
78773;BME280;68111;44.728;11.290;2023-07-20T05:32:50;100889.59;;;28.96;46.84
78773;BME280;68111;44.728;11.290;2023-07-20T05:35:19;100895.81;;;28.98;45.94
78773;BME280;68111;44.728;11.290;2023-07-20T05:37:45;100893.63;;;29.03;46.18
78773;BME280;68111;44.728;11.290;2023-07-20T05:40:14;100887.63;;;29.11;45.39
78773;BME280;68111;44.728;11.290;2023-07-20T05:42:41;100887.06;;;29.18;45.65
78773;BME280;68111;44.728;11.290;2023-07-20T05:45:08;100882.91;;;29.25;45.03
78773;BME280;68111;44.728;11.290;2023-07-20T05:47:35;100889.00;;;29.29;45.05
78773;BME280;68111;44.728;11.290;2023-07-20T05:50:01;100888.75;;;29.32;45.15
78773;BME280;68111;44.728;11.290;2023-07-20T05:52:30;100887.44;;;29.38;45.06
78773;BME280;68111;44.728;11.290;2023-07-20T05:54:57;100887.78;;;29.46;44.51
78773;BME280;68111;44.728;11.290;2023-07-20T05:57:23;100883.50;;;29.54;44.26
78773;BME280;68111;44.728;11.290;2023-07-20T05:59:50;100888.34;;;29.62;44.09
78773;BME280;68111;44.728;11.290;2023-07-20T06:02:17;100891.38;;;29.70;44.46
78773;BME280;68111;44.728;11.290;2023-07-20T06:04:44;100889.47;;;29.83;44.20
78773;BME280;68111;44.728;11.290;2023-07-20T06:07:11;100899.69;;;29.92;43.89
78773;BME280;68111;44.728;11.290;2023-07-20T06:09:38;100899.47;;;29.96;43.34
78773;BME280;68111;44.728;11.290;2023-07-20T06:12:05;100900.34;;;29.96;43.74
78773;BME280;68111;44.728;11.290;2023-07-20T06:14:32;100894.00;;;29.96;43.85
78773;BME280;68111;44.728;11.290;2023-07-20T06:16:59;100890.06;;;30.00;43.38
78773;BME280;68111;44.728;11.290;2023-07-20T06:19:26;100893.78;;;29.99;43.77
78773;BME280;68111;44.728;11.290;2023-07-20T06:21:52;100894.38;;;30.15;43.74
78773;BME280;68111;44.728;11.290;2023-07-20T06:24:19;100894.28;;;31.07;42.24
78773;BME280;68111;44.728;11.290;2023-07-20T06:26:46;100904.84;;;32.32;40.07
78773;BME280;68111;44.728;11.290;2023-07-20T06:29:12;100905.81;;;33.54;37.95
78773;BME280;68111;44.728;11.290;2023-07-20T06:31:39;100917.19;;;34.48;36.42
78773;BME280;68111;44.728;11.290;2023-07-20T06:34:06;100910.16;;;35.39;35.11
78773;BME280;68111;44.728;11.290;2023-07-20T06:36:35;100911.25;;;36.27;33.73
78773;BME280;68111;44.728;11.290;2023-07-20T06:39:02;100908.06;;;36.75;32.52
78773;BME280;68111;44.728;11.290;2023-07-20T06:41:32;100907.97;;;37.10;31.27
78773;BME280;68111;44.728;11.290;2023-07-20T06:44:02;100913.34;;;37.62;30.83
78773;BME280;68111;44.728;11.290;2023-07-20T06:46:29;100909.22;;;38.25;29.80
78773;BME280;68111;44.728;11.290;2023-07-20T06:48:55;100925.94;;;38.80;28.92
78773;BME280;68111;44.728;11.290;2023-07-20T06:51:26;100919.81;;;39.25;28.19
78773;BME280;68111;44.728;11.290;2023-07-20T06:53:53;100911.75;;;39.55;27.53
78773;BME280;68111;44.728;11.290;2023-07-20T06:56:20;100923.78;;;39.70;27.06
78773;BME280;68111;44.728;11.290;2023-07-20T06:58:51;100922.63;;;39.87;26.48
78773;BME280;68111;44.728;11.290;2023-07-20T07:01:18;100919.06;;;39.79;26.78
78773;BME280;68111;44.728;11.290;2023-07-20T07:03:48;100925.88;;;39.99;26.43
78773;BME280;68111;44.728;11.290;2023-07-20T07:06:18;100914.63;;;40.46;25.98
78773;BME280;68111;44.728;11.290;2023-07-20T07:08:45;100911.97;;;40.90;25.64
78773;BME280;68111;44.728;11.290;2023-07-20T07:11:12;100922.41;;;41.33;25.15
78773;BME280;68111;44.728;11.290;2023-07-20T07:13:40;100937.28;;;41.61;24.63
78773;BME280;68111;44.728;11.290;2023-07-20T07:16:06;100939.22;;;41.75;23.87
78773;BME280;68111;44.728;11.290;2023-07-20T07:18:35;100944.03;;;42.03;23.35
78773;BME280;68111;44.728;11.290;2023-07-20T07:21:02;100938.75;;;42.29;23.17
78773;BME280;68111;44.728;11.290;2023-07-20T07:23:29;100943.69;;;42.76;23.03
78773;BME280;68111;44.728;11.290;2023-07-20T07:25:56;100939.72;;;43.14;22.92
78773;BME280;68111;44.728;11.290;2023-07-20T07:28:22;100938.69;;;43.62;22.03
78773;BME280;68111;44.728;11.290;2023-07-20T07:30:49;100941.47;;;44.10;21.58
78773;BME280;68111;44.728;11.290;2023-07-20T07:33:16;100941.72;;;44.28;21.11
78773;BME280;68111;44.728;11.290;2023-07-20T07:35:43;100938.94;;;44.28;21.21
78773;BME280;68111;44.728;11.290;2023-07-20T07:38:09;100937.69;;;44.51;20.53
78773;BME280;68111;44.728;11.290;2023-07-20T07:40:58;100932.13;;;44.84;20.51
78773;BME280;68111;44.728;11.290;2023-07-20T07:43:25;100940.22;;;45.05;20.18
78773;BME280;68111;44.728;11.290;2023-07-20T07:45:53;100928.16;;;45.18;19.93
78773;BME280;68111;44.728;11.290;2023-07-20T07:48:20;100925.81;;;45.28;19.76
78773;BME280;68111;44.728;11.290;2023-07-20T07:50:48;100932.03;;;45.23;19.78
78773;BME280;68111;44.728;11.290;2023-07-20T07:53:16;100926.44;;;45.17;19.89
78773;BME280;68111;44.728;11.290;2023-07-20T07:55:43;100930.56;;;45.21;19.74
78773;BME280;68111;44.728;11.290;2023-07-20T07:58:10;100940.78;;;45.53;19.44
78773;BME280;68111;44.728;11.290;2023-07-20T08:00:37;100933.91;;;45.94;18.85
78773;BME280;68111;44.728;11.290;2023-07-20T08:03:03;100941.34;;;46.13;19.09
78773;BME280;68111;44.728;11.290;2023-07-20T08:05:30;100937.47;;;46.46;18.83
78773;BME280;68111;44.728;11.290;2023-07-20T08:07:57;100942.94;;;46.59;18.22
78773;BME280;68111;44.728;11.290;2023-07-20T08:10:24;100941.47;;;46.81;18.24
78773;BME280;68111;44.728;11.290;2023-07-20T08:12:51;100940.03;;;46.97;18.25
78773;BME280;68111;44.728;11.290;2023-07-20T08:15:18;100944.50;;;46.80;18.28
78773;BME280;68111;44.728;11.290;2023-07-20T08:17:45;100939.97;;;46.54;18.71
78773;BME280;68111;44.728;11.290;2023-07-20T08:20:13;100941.19;;;46.40;18.72
78773;BME280;68111;44.728;11.290;2023-07-20T08:22:40;100936.03;;;46.62;18.77
78773;BME280;68111;44.728;11.290;2023-07-20T08:25:07;100933.59;;;46.97;18.35
78773;BME280;68111;44.728;11.290;2023-07-20T08:27:35;100928.19;;;47.38;18.02
78773;BME280;68111;44.728;11.290;2023-07-20T08:30:02;100923.00;;;47.90;17.46
78773;BME280;68111;44.728;11.290;2023-07-20T08:32:32;100927.38;;;48.16;17.36
78773;BME280;68111;44.728;11.290;2023-07-20T08:34:59;100920.09;;;48.27;17.28
78773;BME280;68111;44.728;11.290;2023-07-20T08:37:25;100926.16;;;48.65;17.16
78773;BME280;68111;44.728;11.290;2023-07-20T08:39:52;100925.66;;;48.80;16.81
78773;BME280;68111;44.728;11.290;2023-07-20T08:42:20;100920.53;;;49.12;16.74
78773;BME280;68111;44.728;11.290;2023-07-20T08:44:48;100920.84;;;49.62;16.55
78773;BME280;68111;44.728;11.290;2023-07-20T08:47:16;100927.63;;;50.07;15.64
78773;BME280;68111;44.728;11.290;2023-07-20T08:49:43;100927.41;;;50.42;15.48
78773;BME280;68111;44.728;11.290;2023-07-20T08:52:11;100928.00;;;50.60;14.88
78773;BME280;68111;44.728;11.290;2023-07-20T08:54:39;100926.00;;;50.73;15.00
78773;BME280;68111;44.728;11.290;2023-07-20T08:57:06;100930.00;;;50.77;14.96
78773;BME280;68111;44.728;11.290;2023-07-20T08:59:36;100923.41;;;50.88;14.83
78773;BME280;68111;44.728;11.290;2023-07-20T09:02:04;100931.00;;;51.04;14.76
78773;BME280;68111;44.728;11.290;2023-07-20T09:04:32;100923.16;;;50.89;14.66
78773;BME280;68111;44.728;11.290;2023-07-20T09:06:59;100918.22;;;50.80;14.70
78773;BME280;68111;44.728;11.290;2023-07-20T09:09:25;100924.66;;;50.97;14.67
78773;BME280;68111;44.728;11.290;2023-07-20T09:11:52;100927.66;;;51.07;14.95
78773;BME280;68111;44.728;11.290;2023-07-20T09:14:19;100922.81;;;51.25;14.33
78773;BME280;68111;44.728;11.290;2023-07-20T09:16:51;100924.75;;;51.41;14.67
78773;BME280;68111;44.728;11.290;2023-07-20T09:19:18;100924.88;;;51.51;14.33
78773;BME280;68111;44.728;11.290;2023-07-20T09:21:49;100912.59;;;51.62;14.45
78773;BME280;68111;44.728;11.290;2023-07-20T09:24:18;100923.28;;;51.82;14.35
78773;BME280;68111;44.728;11.290;2023-07-20T09:26:47;100917.22;;;51.68;14.42
78773;BME280;68111;44.728;11.290;2023-07-20T09:29:20;100916.88;;;51.21;14.61
78773;BME280;68111;44.728;11.290;2023-07-20T09:34:30;100913.91;;;51.76;14.30
78773;BME280;68111;44.728;11.290;2023-07-20T09:37:01;100911.91;;;52.26;13.88
78773;BME280;68111;44.728;11.290;2023-07-20T09:39:29;100912.28;;;52.66;13.63
78773;BME280;68111;44.728;11.290;2023-07-20T09:42:00;100914.59;;;52.74;13.46
78773;BME280;68111;44.728;11.290;2023-07-20T09:44:31;100920.41;;;52.63;13.42
78773;BME280;68111;44.728;11.290;2023-07-20T09:47:03;100909.19;;;52.36;13.75
78773;BME280;68111;44.728;11.290;2023-07-20T09:49:31;100913.28;;;51.96;13.62
78773;BME280;68111;44.728;11.290;2023-07-20T09:52:18;100908.88;;;51.57;14.47
78773;BME280;68111;44.728;11.290;2023-07-20T09:54:49;100904.03;;;51.30;14.71
78773;BME280;68111;44.728;11.290;2023-07-20T09:57:16;100909.50;;;51.37;14.16
78773;BME280;68111;44.728;11.290;2023-07-20T09:59:44;100914.88;;;51.87;14.26
78773;BME280;68111;44.728;11.290;2023-07-20T10:02:20;100895.47;;;52.18;13.83
78773;BME280;68111;44.728;11.290;2023-07-20T10:05:08;100896.25;;;52.08;14.12
78773;BME280;68111;44.728;11.290;2023-07-20T10:07:36;100902.44;;;52.37;13.71
78773;BME280;68111;44.728;11.290;2023-07-20T10:10:25;100899.72;;;52.89;13.24
78773;BME280;68111;44.728;11.290;2023-07-20T10:12:52;100900.91;;;52.61;13.03
78773;BME280;68111;44.728;11.290;2023-07-20T10:15:24;100893.31;;;52.30;14.03
78773;BME280;68111;44.728;11.290;2023-07-20T10:18:17;100897.16;;;51.92;14.25
78773;BME280;68111;44.728;11.290;2023-07-20T10:20:46;100896.03;;;51.66;14.04
78773;BME280;68111;44.728;11.290;2023-07-20T10:23:16;100897.47;;;51.68;13.80
78773;BME280;68111;44.728;11.290;2023-07-20T10:25:43;100894.13;;;51.28;14.43
78773;BME280;68111;44.728;11.290;2023-07-20T10:28:12;100898.44;;;51.13;14.70
78773;BME280;68111;44.728;11.290;2023-07-20T10:30:39;100894.38;;;51.04;14.59
78773;BME280;68111;44.728;11.290;2023-07-20T10:33:08;100901.56;;;50.28;15.82
78773;BME280;68111;44.728;11.290;2023-07-20T10:35:55;100892.28;;;49.82;15.71
78773;BME280;68111;44.728;11.290;2023-07-20T10:41:21;100884.41;;;49.96;15.91
78773;BME280;68111;44.728;11.290;2023-07-20T10:43:55;100889.78;;;49.97;15.99
78773;BME280;68111;44.728;11.290;2023-07-20T10:49:24;100881.13;;;48.95;16.55
78773;BME280;68111;44.728;11.290;2023-07-20T10:51:58;100871.94;;;48.53;16.87
78773;BME280;68111;44.728;11.290;2023-07-20T10:56:52;100880.84;;;48.27;17.51
78773;BME280;68111;44.728;11.290;2023-07-20T10:59:41;100867.59;;;47.74;17.85
78773;BME280;68111;44.728;11.290;2023-07-20T11:02:07;100864.38;;;47.40;18.38
78773;BME280;68111;44.728;11.290;2023-07-20T11:04:42;100853.38;;;47.09;18.87
78773;BME280;68111;44.728;11.290;2023-07-20T11:07:10;100858.53;;;46.44;19.14
78773;BME280;68111;44.728;11.290;2023-07-20T11:09:41;100858.91;;;45.59;20.06
78773;BME280;68111;44.728;11.290;2023-07-20T11:12:17;100849.03;;;44.92;20.96
78773;BME280;68111;44.728;11.290;2023-07-20T11:14:54;100852.50;;;44.42;21.37
78773;BME280;68111;44.728;11.290;2023-07-20T11:17:29;100848.19;;;44.06;21.93
78773;BME280;68111;44.728;11.290;2023-07-20T11:19:57;100844.44;;;43.59;22.22
78773;BME280;68111;44.728;11.290;2023-07-20T11:22:28;100842.53;;;43.12;22.93
78773;BME280;68111;44.728;11.290;2023-07-20T11:24:55;100845.03;;;42.72;22.97
78773;BME280;68111;44.728;11.290;2023-07-20T11:27:22;100840.16;;;42.46;23.99
78773;BME280;68111;44.728;11.290;2023-07-20T11:29:49;100844.03;;;42.24;24.14
78773;BME280;68111;44.728;11.290;2023-07-20T11:32:20;100830.13;;;42.03;24.41
78773;BME280;68111;44.728;11.290;2023-07-20T11:34:48;100836.28;;;41.77;24.49
78773;BME280;68111;44.728;11.290;2023-07-20T11:37:16;100830.88;;;41.54;24.95
78773;BME280;68111;44.728;11.290;2023-07-20T11:39:43;100832.41;;;41.20;25.98
78773;BME280;68111;44.728;11.290;2023-07-20T11:42:11;100829.25;;;40.94;26.52
78773;BME280;68111;44.728;11.290;2023-07-20T11:44:38;100832.88;;;40.80;26.31
78773;BME280;68111;44.728;11.290;2023-07-20T11:47:08;100829.81;;;40.75;26.62
78773;BME280;68111;44.728;11.290;2023-07-20T11:49:40;100832.09;;;40.71;26.85
78773;BME280;68111;44.728;11.290;2023-07-20T11:52:09;100823.69;;;40.65;26.71
78773;BME280;68111;44.728;11.290;2023-07-20T11:54:41;100825.78;;;40.63;26.98
78773;BME280;68111;44.728;11.290;2023-07-20T11:57:17;100817.47;;;40.63;27.21
78773;BME280;68111;44.728;11.290;2023-07-20T11:59:57;100816.50;;;40.41;27.33
78773;BME280;68111;44.728;11.290;2023-07-20T12:02:28;100815.56;;;40.25;27.50
78773;BME280;68111;44.728;11.290;2023-07-20T12:04:55;100813.25;;;40.14;27.71
78773;BME280;68111;44.728;11.290;2023-07-20T12:07:23;100808.81;;;40.05;27.89
78773;BME280;68111;44.728;11.290;2023-07-20T12:10:11;100805.63;;;39.93;28.21
78773;BME280;68111;44.728;11.290;2023-07-20T12:12:39;100806.06;;;39.82;28.12
78773;BME280;68111;44.728;11.290;2023-07-20T12:17:46;100801.50;;;39.66;28.42
78773;BME280;68111;44.728;11.290;2023-07-20T12:20:35;100789.72;;;39.42;29.17
78773;BME280;68111;44.728;11.290;2023-07-20T12:23:10;100795.00;;;39.28;29.42
78773;BME280;68111;44.728;11.290;2023-07-20T12:25:45;100791.06;;;39.23;29.29
78773;BME280;68111;44.728;11.290;2023-07-20T12:28:17;100785.72;;;39.21;28.99
78773;BME280;68111;44.728;11.290;2023-07-20T12:30:45;100780.41;;;39.12;29.60
78773;BME280;68111;44.728;11.290;2023-07-20T12:33:12;100784.72;;;38.98;30.05
78773;BME280;68111;44.728;11.290;2023-07-20T12:35:43;100786.31;;;38.92;30.05
78773;BME280;68111;44.728;11.290;2023-07-20T12:38:10;100781.00;;;38.83;30.11
78773;BME280;68111;44.728;11.290;2023-07-20T12:40:36;100773.78;;;38.73;30.66
78773;BME280;68111;44.728;11.290;2023-07-20T12:43:03;100783.84;;;38.66;30.29
78773;BME280;68111;44.728;11.290;2023-07-20T12:45:31;100780.03;;;38.59;30.70
78773;BME280;68111;44.728;11.290;2023-07-20T12:47:57;100787.84;;;38.48;30.37
78773;BME280;68111;44.728;11.290;2023-07-20T12:50:24;100773.50;;;38.44;30.63
78773;BME280;68111;44.728;11.290;2023-07-20T12:52:51;100781.66;;;38.37;30.76
78773;BME280;68111;44.728;11.290;2023-07-20T12:55:18;100773.91;;;38.25;31.18
78773;BME280;68111;44.728;11.290;2023-07-20T12:57:45;100765.28;;;38.11;30.65
78773;BME280;68111;44.728;11.290;2023-07-20T13:00:14;100765.63;;;38.08;30.92
78773;BME280;68111;44.728;11.290;2023-07-20T13:02:40;100762.19;;;38.06;31.09
78773;BME280;68111;44.728;11.290;2023-07-20T13:05:08;100761.66;;;38.03;31.45
78773;BME280;68111;44.728;11.290;2023-07-20T13:07:36;100770.81;;;38.03;31.51
78773;BME280;68111;44.728;11.290;2023-07-20T13:10:07;100759.25;;;37.92;31.33
78773;BME280;68111;44.728;11.290;2023-07-20T13:12:35;100750.28;;;37.82;32.16
78773;BME280;68111;44.728;11.290;2023-07-20T13:15:03;100750.81;;;37.77;31.90